sensor_id;sensor_type;location;lat;lon;timestamp;temperature;humidity
10889;DHT22;5497;51.388;6.780;2023-04-03T00:00:03;0.70;99.90
10889;DHT22;5497;51.388;6.780;2023-04-03T00:02:32;0.60;99.90
10889;DHT22;5497;51.388;6.780;2023-04-03T00:04:59;0.60;99.90
10889;DHT22;5497;51.388;6.780;2023-04-03T00:10:01;0.50;99.90
10889;DHT22;5497;51.388;6.780;2023-04-03T00:12:28;0.50;99.90
10889;DHT22;5497;51.388;6.780;2023-04-03T00:14:55;0.50;99.90
10889;DHT22;5497;51.388;6.780;2023-04-03T00:17:24;0.50;99.90
10889;DHT22;5497;51.388;6.780;2023-04-03T00:19:51;0.50;99.90
10889;DHT22;5497;51.388;6.780;2023-04-03T00:22:17;0.50;99.90
10889;DHT22;5497;51.388;6.780;2023-04-03T00:24:44;0.50;99.90
10889;DHT22;5497;51.388;6.780;2023-04-03T00:27:11;0.50;99.90
10889;DHT22;5497;51.388;6.780;2023-04-03T00:29:38;0.50;99.90
10889;DHT22;5497;51.388;6.780;2023-04-03T00:32:05;0.40;99.90
10889;DHT22;5497;51.388;6.780;2023-04-03T00:34:34;0.40;99.90
10889;DHT22;5497;51.388;6.780;2023-04-03T00:37:01;0.40;99.90
10889;DHT22;5497;51.388;6.780;2023-04-03T00:39:28;0.40;99.90
10889;DHT22;5497;51.388;6.780;2023-04-03T00:41:56;0.40;99.90
10889;DHT22;5497;51.388;6.780;2023-04-03T00:45:21;0.40;99.90
10889;DHT22;5497;51.388;6.780;2023-04-03T00:52:28;0.40;99.90
10889;DHT22;5497;51.388;6.780;2023-04-03T00:54:57;0.40;99.90
10889;DHT22;5497;51.388;6.780;2023-04-03T00:57:25;0.30;99.90
10889;DHT22;5497;51.388;6.780;2023-04-03T00:59:53;0.30;99.90
10889;DHT22;5497;51.388;6.780;2023-04-03T01:02:22;0.30;99.90
10889;DHT22;5497;51.388;6.780;2023-04-03T01:04:50;0.30;99.90
10889;DHT22;5497;51.388;6.780;2023-04-03T01:07:18;0.30;99.90
10889;DHT22;5497;51.388;6.780;2023-04-03T01:09:48;0.30;99.90
10889;DHT22;5497;51.388;6.780;2023-04-03T01:12:20;0.30;99.90
10889;DHT22;5497;51.388;6.780;2023-04-03T01:14:48;0.30;99.90
10889;DHT22;5497;51.388;6.780;2023-04-03T01:17:29;0.30;99.90
10889;DHT22;5497;51.388;6.780;2023-04-03T01:20:02;0.30;99.90
10889;DHT22;5497;51.388;6.780;2023-04-03T01:26:11;0.20;99.90
10889;DHT22;5497;51.388;6.780;2023-04-03T01:28:38;0.10;99.90
10889;DHT22;5497;51.388;6.780;2023-04-03T01:31:08;0.10;99.90
10889;DHT22;5497;51.388;6.780;2023-04-03T01:33:40;0.10;99.90
10889;DHT22;5497;51.388;6.780;2023-04-03T01:36:09;0.10;99.90
10889;DHT22;5497;51.388;6.780;2023-04-03T01:38:39;0.10;99.90
10889;DHT22;5497;51.388;6.780;2023-04-03T01:41:06;0.10;99.90
10889;DHT22;5497;51.388;6.780;2023-04-03T01:43:34;0.10;99.90
10889;DHT22;5497;51.388;6.780;2023-04-03T01:46:01;0.10;99.90
10889;DHT22;5497;51.388;6.780;2023-04-03T01:48:28;0.00;99.90
10889;DHT22;5497;51.388;6.780;2023-04-03T01:50:56;0.00;99.90
10889;DHT22;5497;51.388;6.780;2023-04-03T01:53:23;0.00;99.90
10889;DHT22;5497;51.388;6.780;2023-04-03T01:55:50;0.00;99.90
10889;DHT22;5497;51.388;6.780;2023-04-03T01:58:17;-0.10;99.90
10889;DHT22;5497;51.388;6.780;2023-04-03T02:00:46;-0.10;99.90
10889;DHT22;5497;51.388;6.780;2023-04-03T02:03:13;-0.10;99.90
10889;DHT22;5497;51.388;6.780;2023-04-03T02:05:40;-0.10;99.90
10889;DHT22;5497;51.388;6.780;2023-04-03T02:08:09;-0.10;99.90
10889;DHT22;5497;51.388;6.780;2023-04-03T02:10:36;0.00;99.90
10889;DHT22;5497;51.388;6.780;2023-04-03T02:13:03;0.00;99.90
10889;DHT22;5497;51.388;6.780;2023-04-03T02:15:30;0.00;99.90
10889;DHT22;5497;51.388;6.780;2023-04-03T02:17:57;0.00;99.90
10889;DHT22;5497;51.388;6.780;2023-04-03T02:20:24;0.00;99.90
10889;DHT22;5497;51.388;6.780;2023-04-03T02:22:50;0.00;99.90
10889;DHT22;5497;51.388;6.780;2023-04-03T02:25:18;0.00;99.90
10889;DHT22;5497;51.388;6.780;2023-04-03T02:27:45;0.00;99.90
10889;DHT22;5497;51.388;6.780;2023-04-03T02:30:12;0.00;99.90
10889;DHT22;5497;51.388;6.780;2023-04-03T02:32:40;0.00;99.90
10889;DHT22;5497;51.388;6.780;2023-04-03T02:35:07;0.00;99.90
10889;DHT22;5497;51.388;6.780;2023-04-03T02:37:35;0.00;99.90
10889;DHT22;5497;51.388;6.780;2023-04-03T02:40:02;-0.10;99.90
10889;DHT22;5497;51.388;6.780;2023-04-03T02:42:30;-0.10;99.90
10889;DHT22;5497;51.388;6.780;2023-04-03T02:44:57;-0.10;99.90
10889;DHT22;5497;51.388;6.780;2023-04-03T02:47:25;-0.10;99.90
10889;DHT22;5497;51.388;6.780;2023-04-03T02:49:53;-0.10;99.90
10889;DHT22;5497;51.388;6.780;2023-04-03T02:52:20;0.00;99.90
10889;DHT22;5497;51.388;6.780;2023-04-03T02:54:48;0.00;99.90
10889;DHT22;5497;51.388;6.780;2023-04-03T02:57:15;0.00;99.90
10889;DHT22;5497;51.388;6.780;2023-04-03T02:59:43;0.00;99.90
10889;DHT22;5497;51.388;6.780;2023-04-03T03:02:11;0.00;99.90
10889;DHT22;5497;51.388;6.780;2023-04-03T03:04:37;0.00;99.90
10889;DHT22;5497;51.388;6.780;2023-04-03T03:07:04;0.00;99.90
10889;DHT22;5497;51.388;6.780;2023-04-03T03:09:31;0.00;99.90
10889;DHT22;5497;51.388;6.780;2023-04-03T03:11:58;0.00;99.90
10889;DHT22;5497;51.388;6.780;2023-04-03T03:14:25;0.00;99.90
10889;DHT22;5497;51.388;6.780;2023-04-03T03:16:53;0.00;99.90
10889;DHT22;5497;51.388;6.780;2023-04-03T03:19:20;0.00;99.90
10889;DHT22;5497;51.388;6.780;2023-04-03T03:21:47;0.00;99.90
10889;DHT22;5497;51.388;6.780;2023-04-03T03:24:13;0.00;99.90
10889;DHT22;5497;51.388;6.780;2023-04-03T03:26:41;0.00;99.90
10889;DHT22;5497;51.388;6.780;2023-04-03T03:29:08;0.00;99.90
10889;DHT22;5497;51.388;6.780;2023-04-03T03:31:35;0.00;99.90
10889;DHT22;5497;51.388;6.780;2023-04-03T03:34:03;-0.10;99.90
10889;DHT22;5497;51.388;6.780;2023-04-03T03:36:30;-0.10;99.90
10889;DHT22;5497;51.388;6.780;2023-04-03T03:38:57;-0.10;99.90
10889;DHT22;5497;51.388;6.780;2023-04-03T03:41:24;-0.10;99.90
10889;DHT22;5497;51.388;6.780;2023-04-03T03:43:50;-0.10;99.90
10889;DHT22;5497;51.388;6.780;2023-04-03T03:46:17;-0.10;99.90
10889;DHT22;5497;51.388;6.780;2023-04-03T03:48:44;-0.10;99.90
10889;DHT22;5497;51.388;6.780;2023-04-03T03:51:12;-0.20;99.90
10889;DHT22;5497;51.388;6.780;2023-04-03T03:53:39;-0.10;99.90
10889;DHT22;5497;51.388;6.780;2023-04-03T03:56:11;0.00;99.90
10889;DHT22;5497;51.388;6.780;2023-04-03T03:58:39;0.00;99.90
10889;DHT22;5497;51.388;6.780;2023-04-03T04:01:06;0.10;99.90
10889;DHT22;5497;51.388;6.780;2023-04-03T04:03:39;0.10;99.90
10889;DHT22;5497;51.388;6.780;2023-04-03T04:06:08;0.30;99.90
10889;DHT22;5497;51.388;6.780;2023-04-03T04:08:36;0.30;99.90
10889;DHT22;5497;51.388;6.780;2023-04-03T04:11:05;0.40;99.90
10889;DHT22;5497;51.388;6.780;2023-04-03T04:13:32;0.40;99.90
10889;DHT22;5497;51.388;6.780;2023-04-03T04:16:00;0.50;99.90
10889;DHT22;5497;51.388;6.780;2023-04-03T04:18:27;0.50;99.90
10889;DHT22;5497;51.388;6.780;2023-04-03T04:20:54;0.60;99.90
10889;DHT22;5497;51.388;6.780;2023-04-03T04:23:22;0.60;99.90
10889;DHT22;5497;51.388;6.780;2023-04-03T04:25:51;0.80;99.90
10889;DHT22;5497;51.388;6.780;2023-04-03T04:28:19;0.70;99.90
10889;DHT22;5497;51.388;6.780;2023-04-03T04:30:48;0.80;99.90
10889;DHT22;5497;51.388;6.780;2023-04-03T04:33:16;0.80;99.90
10889;DHT22;5497;51.388;6.780;2023-04-03T04:35:44;0.80;99.90
10889;DHT22;5497;51.388;6.780;2023-04-03T04:38:11;0.90;99.90
10889;DHT22;5497;51.388;6.780;2023-04-03T04:40:38;0.90;99.90
10889;DHT22;5497;51.388;6.780;2023-04-03T04:43:07;0.90;99.90
10889;DHT22;5497;51.388;6.780;2023-04-03T04:45:35;0.90;99.90
10889;DHT22;5497;51.388;6.780;2023-04-03T04:48:02;0.80;99.90
10889;DHT22;5497;51.388;6.780;2023-04-03T04:50:29;0.90;99.90
10889;DHT22;5497;51.388;6.780;2023-04-03T04:52:56;0.80;99.90
10889;DHT22;5497;51.388;6.780;2023-04-03T04:55:23;0.80;99.90
10889;DHT22;5497;51.388;6.780;2023-04-03T04:57:50;0.80;99.90
10889;DHT22;5497;51.388;6.780;2023-04-03T05:00:18;0.80;99.90
10889;DHT22;5497;51.388;6.780;2023-04-03T05:02:46;1.00;99.90
10889;DHT22;5497;51.388;6.780;2023-04-03T05:05:12;0.80;99.90
10889;DHT22;5497;51.388;6.780;2023-04-03T05:07:40;0.80;99.90
10889;DHT22;5497;51.388;6.780;2023-04-03T05:10:07;0.80;99.90
10889;DHT22;5497;51.388;6.780;2023-04-03T05:12:34;0.80;99.90
10889;DHT22;5497;51.388;6.780;2023-04-03T05:15:03;1.40;99.90
10889;DHT22;5497;51.388;6.780;2023-04-03T05:17:32;0.80;99.90
10889;DHT22;5497;51.388;6.780;2023-04-03T05:20:00;0.80;99.90
10889;DHT22;5497;51.388;6.780;2023-04-03T05:22:28;0.80;99.90
10889;DHT22;5497;51.388;6.780;2023-04-03T05:24:59;0.80;99.90
10889;DHT22;5497;51.388;6.780;2023-04-03T05:27:27;0.90;99.90
10889;DHT22;5497;51.388;6.780;2023-04-03T05:29:56;0.80;99.90
10889;DHT22;5497;51.388;6.780;2023-04-03T05:32:24;0.90;99.90
10889;DHT22;5497;51.388;6.780;2023-04-03T05:35:03;0.90;99.90
10889;DHT22;5497;51.388;6.780;2023-04-03T05:37:29;1.20;99.90
10889;DHT22;5497;51.388;6.780;2023-04-03T05:39:57;1.10;99.90
10889;DHT22;5497;51.388;6.780;2023-04-03T05:42:24;1.20;99.90
10889;DHT22;5497;51.388;6.780;2023-04-03T05:44:50;1.70;99.90
10889;DHT22;5497;51.388;6.780;2023-04-03T05:47:17;2.70;99.90
10889;DHT22;5497;51.388;6.780;2023-04-03T05:49:44;3.60;99.90
10889;DHT22;5497;51.388;6.780;2023-04-03T05:52:18;4.40;99.90
10889;DHT22;5497;51.388;6.780;2023-04-03T05:54:47;4.80;99.90
10889;DHT22;5497;51.388;6.780;2023-04-03T05:57:18;5.90;99.90
10889;DHT22;5497;51.388;6.780;2023-04-03T05:59:46;6.80;99.90
10889;DHT22;5497;51.388;6.780;2023-04-03T06:02:14;7.60;99.90
10889;DHT22;5497;51.388;6.780;2023-04-03T06:04:42;8.40;99.90
10889;DHT22;5497;51.388;6.780;2023-04-03T06:07:10;9.20;99.90
10889;DHT22;5497;51.388;6.780;2023-04-03T06:09:39;9.80;99.90
10889;DHT22;5497;51.388;6.780;2023-04-03T06:12:06;10.30;99.90
10889;DHT22;5497;51.388;6.780;2023-04-03T06:14:33;10.60;99.90
10889;DHT22;5497;51.388;6.780;2023-04-03T06:17:01;10.80;99.90
10889;DHT22;5497;51.388;6.780;2023-04-03T06:19:28;11.20;99.90
10889;DHT22;5497;51.388;6.780;2023-04-03T06:21:56;11.40;99.90
10889;DHT22;5497;51.388;6.780;2023-04-03T06:24:23;11.50;99.90
10889;DHT22;5497;51.388;6.780;2023-04-03T06:26:52;11.70;99.90
10889;DHT22;5497;51.388;6.780;2023-04-03T06:29:19;12.10;99.90
10889;DHT22;5497;51.388;6.780;2023-04-03T06:31:46;12.50;99.90
10889;DHT22;5497;51.388;6.780;2023-04-03T06:34:13;13.10;99.90
10889;DHT22;5497;51.388;6.780;2023-04-03T06:36:40;13.60;99.90
10889;DHT22;5497;51.388;6.780;2023-04-03T06:39:08;13.80;99.90
10889;DHT22;5497;51.388;6.780;2023-04-03T06:41:35;14.50;99.90
10889;DHT22;5497;51.388;6.780;2023-04-03T06:44:03;15.00;99.90
10889;DHT22;5497;51.388;6.780;2023-04-03T06:46:30;14.80;99.90
10889;DHT22;5497;51.388;6.780;2023-04-03T06:48:57;14.90;99.90
10889;DHT22;5497;51.388;6.780;2023-04-03T06:51:24;15.30;99.90
10889;DHT22;5497;51.388;6.780;2023-04-03T06:53:51;15.40;99.90
10889;DHT22;5497;51.388;6.780;2023-04-03T06:56:19;15.30;99.90
10889;DHT22;5497;51.388;6.780;2023-04-03T06:58:46;15.10;99.90
10889;DHT22;5497;51.388;6.780;2023-04-03T07:01:15;15.20;99.90
10889;DHT22;5497;51.388;6.780;2023-04-03T07:03:45;15.10;99.90
10889;DHT22;5497;51.388;6.780;2023-04-03T07:06:13;14.80;99.90
10889;DHT22;5497;51.388;6.780;2023-04-03T07:08:41;15.10;99.90
10889;DHT22;5497;51.388;6.780;2023-04-03T07:11:08;15.10;99.90
10889;DHT22;5497;51.388;6.780;2023-04-03T07:13:35;15.40;99.90
10889;DHT22;5497;51.388;6.780;2023-04-03T07:16:02;15.70;99.90
10889;DHT22;5497;51.388;6.780;2023-04-03T07:18:31;16.20;99.90
10889;DHT22;5497;51.388;6.780;2023-04-03T07:20:59;16.30;99.90
10889;DHT22;5497;51.388;6.780;2023-04-03T07:23:25;15.90;99.90
10889;DHT22;5497;51.388;6.780;2023-04-03T07:25:53;15.80;99.90
10889;DHT22;5497;51.388;6.780;2023-04-03T07:28:20;15.90;99.90
10889;DHT22;5497;51.388;6.780;2023-04-03T07:30:48;16.30;99.90
10889;DHT22;5497;51.388;6.780;2023-04-03T07:33:15;16.70;99.90
10889;DHT22;5497;51.388;6.780;2023-04-03T07:35:44;16.50;99.90
10889;DHT22;5497;51.388;6.780;2023-04-03T07:38:11;16.30;99.90
10889;DHT22;5497;51.388;6.780;2023-04-03T07:40:38;16.60;99.90
10889;DHT22;5497;51.388;6.780;2023-04-03T07:43:05;16.60;99.90
10889;DHT22;5497;51.388;6.780;2023-04-03T07:45:32;16.40;99.90
10889;DHT22;5497;51.388;6.780;2023-04-03T07:48:03;16.30;99.90
10889;DHT22;5497;51.388;6.780;2023-04-03T07:50:33;16.00;99.90
10889;DHT22;5497;51.388;6.780;2023-04-03T07:53:01;16.10;99.90
10889;DHT22;5497;51.388;6.780;2023-04-03T07:55:28;16.50;99.90
10889;DHT22;5497;51.388;6.780;2023-04-03T07:57:55;16.40;99.90
10889;DHT22;5497;51.388;6.780;2023-04-03T08:00:22;15.90;99.90
10889;DHT22;5497;51.388;6.780;2023-04-03T08:02:48;15.70;99.90
10889;DHT22;5497;51.388;6.780;2023-04-03T08:05:17;15.40;99.90
10889;DHT22;5497;51.388;6.780;2023-04-03T08:07:43;14.90;99.90
10889;DHT22;5497;51.388;6.780;2023-04-03T08:10:12;14.80;99.90
10889;DHT22;5497;51.388;6.780;2023-04-03T08:12:39;14.80;99.90
10889;DHT22;5497;51.388;6.780;2023-04-03T08:15:06;15.10;99.90
10889;DHT22;5497;51.388;6.780;2023-04-03T08:17:33;15.00;99.90
10889;DHT22;5497;51.388;6.780;2023-04-03T08:20:00;14.80;99.90
10889;DHT22;5497;51.388;6.780;2023-04-03T08:22:27;14.20;99.90
10889;DHT22;5497;51.388;6.780;2023-04-03T08:24:53;13.60;99.90
10889;DHT22;5497;51.388;6.780;2023-04-03T08:27:22;13.20;99.90
10889;DHT22;5497;51.388;6.780;2023-04-03T08:29:49;13.20;99.90
10889;DHT22;5497;51.388;6.780;2023-04-03T08:32:16;14.00;99.90
10889;DHT22;5497;51.388;6.780;2023-04-03T08:34:43;13.50;99.90
10889;DHT22;5497;51.388;6.780;2023-04-03T08:37:10;13.10;99.90
10889;DHT22;5497;51.388;6.780;2023-04-03T08:39:37;12.70;99.90
10889;DHT22;5497;51.388;6.780;2023-04-03T08:42:05;12.40;99.90
10889;DHT22;5497;51.388;6.780;2023-04-03T08:44:37;12.50;99.90
10889;DHT22;5497;51.388;6.780;2023-04-03T08:47:10;12.70;99.90
10889;DHT22;5497;51.388;6.780;2023-04-03T08:49:39;12.40;99.90
10889;DHT22;5497;51.388;6.780;2023-04-03T08:52:13;12.10;99.90
10889;DHT22;5497;51.388;6.780;2023-04-03T08:54:41;11.80;99.90
10889;DHT22;5497;51.388;6.780;2023-04-03T08:57:14;11.60;99.80
10889;DHT22;5497;51.388;6.780;2023-04-03T08:59:42;11.30;99.90
10889;DHT22;5497;51.388;6.780;2023-04-03T09:02:17;11.50;99.90
10889;DHT22;5497;51.388;6.780;2023-04-03T09:04:46;12.00;99.90
10889;DHT22;5497;51.388;6.780;2023-04-03T09:07:16;11.90;99.90
10889;DHT22;5497;51.388;6.780;2023-04-03T09:09:44;11.80;99.80
10889;DHT22;5497;51.388;6.780;2023-04-03T09:12:16;11.50;98.80
10889;DHT22;5497;51.388;6.780;2023-04-03T09:14:46;11.30;98.60
10889;DHT22;5497;51.388;6.780;2023-04-03T09:17:15;11.00;98.90
10889;DHT22;5497;51.388;6.780;2023-04-03T09:19:46;10.80;99.60
10889;DHT22;5497;51.388;6.780;2023-04-03T09:22:16;10.60;98.30
10889;DHT22;5497;51.388;6.780;2023-04-03T09:24:44;10.40;99.60
10889;DHT22;5497;51.388;6.780;2023-04-03T09:27:12;10.50;99.90
10889;DHT22;5497;51.388;6.780;2023-04-03T09:29:39;10.50;97.80
10889;DHT22;5497;51.388;6.780;2023-04-03T09:32:25;10.40;98.50
10889;DHT22;5497;51.388;6.780;2023-04-03T09:34:52;10.40;97.50
10889;DHT22;5497;51.388;6.780;2023-04-03T09:37:33;9.90;96.30
10889;DHT22;5497;51.388;6.780;2023-04-03T09:40:00;9.40;97.40
10889;DHT22;5497;51.388;6.780;2023-04-03T09:42:27;9.10;98.30
10889;DHT22;5497;51.388;6.780;2023-04-03T09:44:57;8.90;97.30
10889;DHT22;5497;51.388;6.780;2023-04-03T09:47:26;8.60;96.50
10889;DHT22;5497;51.388;6.780;2023-04-03T09:49:56;8.30;94.70
10889;DHT22;5497;51.388;6.780;2023-04-03T09:52:34;7.90;94.50
10889;DHT22;5497;51.388;6.780;2023-04-03T09:55:05;7.70;96.30
10889;DHT22;5497;51.388;6.780;2023-04-03T09:57:32;7.60;95.80
10889;DHT22;5497;51.388;6.780;2023-04-03T10:00:00;7.40;95.20
10889;DHT22;5497;51.388;6.780;2023-04-03T10:02:34;7.50;95.50
10889;DHT22;5497;51.388;6.780;2023-04-03T10:05:01;7.60;96.20
10889;DHT22;5497;51.388;6.780;2023-04-03T10:07:30;7.70;97.30
10889;DHT22;5497;51.388;6.780;2023-04-03T10:09:57;7.80;96.40
10889;DHT22;5497;51.388;6.780;2023-04-03T10:12:24;7.90;96.10
10889;DHT22;5497;51.388;6.780;2023-04-03T10:14:54;8.00;95.70
10889;DHT22;5497;51.388;6.780;2023-04-03T10:17:23;8.00;95.80
10889;DHT22;5497;51.388;6.780;2023-04-03T10:19:54;8.00;94.80
10889;DHT22;5497;51.388;6.780;2023-04-03T10:22:25;8.00;94.50
10889;DHT22;5497;51.388;6.780;2023-04-03T10:25:01;8.00;94.30
10889;DHT22;5497;51.388;6.780;2023-04-03T10:27:32;8.00;95.10
10889;DHT22;5497;51.388;6.780;2023-04-03T10:30:07;8.10;95.70
10889;DHT22;5497;51.388;6.780;2023-04-03T10:32:45;8.10;95.40
10889;DHT22;5497;51.388;6.780;2023-04-03T10:35:18;8.10;96.30
10889;DHT22;5497;51.388;6.780;2023-04-03T10:37:49;8.30;96.00
10889;DHT22;5497;51.388;6.780;2023-04-03T10:40:22;8.40;96.20
10889;DHT22;5497;51.388;6.780;2023-04-03T10:42:52;8.40;96.60
10889;DHT22;5497;51.388;6.780;2023-04-03T10:45:24;8.50;96.90
10889;DHT22;5497;51.388;6.780;2023-04-03T10:47:56;8.50;96.10
10889;DHT22;5497;51.388;6.780;2023-04-03T10:53:10;8.70;95.70
10889;DHT22;5497;51.388;6.780;2023-04-03T10:55:41;8.80;96.50
10889;DHT22;5497;51.388;6.780;2023-04-03T10:58:10;8.90;96.80
10889;DHT22;5497;51.388;6.780;2023-04-03T11:00:42;9.10;97.70
10889;DHT22;5497;51.388;6.780;2023-04-03T11:03:11;9.30;98.00
10889;DHT22;5497;51.388;6.780;2023-04-03T11:05:40;9.50;96.70
10889;DHT22;5497;51.388;6.780;2023-04-03T11:08:10;9.50;96.40
10889;DHT22;5497;51.388;6.780;2023-04-03T11:10:40;9.50;96.00
10889;DHT22;5497;51.388;6.780;2023-04-03T11:13:10;9.40;96.80
10889;DHT22;5497;51.388;6.780;2023-04-03T11:15:37;9.50;96.80
10889;DHT22;5497;51.388;6.780;2023-04-03T11:18:06;9.60;96.10
10889;DHT22;5497;51.388;6.780;2023-04-03T11:20:35;9.60;96.70
10889;DHT22;5497;51.388;6.780;2023-04-03T11:23:04;9.70;96.40
10889;DHT22;5497;51.388;6.780;2023-04-03T11:25:33;9.80;96.10
10889;DHT22;5497;51.388;6.780;2023-04-03T11:28:03;9.80;96.40
10889;DHT22;5497;51.388;6.780;2023-04-03T11:30:31;9.90;96.60
10889;DHT22;5497;51.388;6.780;2023-04-03T11:33:05;10.00;97.70
10889;DHT22;5497;51.388;6.780;2023-04-03T11:35:35;10.20;96.00
10889;DHT22;5497;51.388;6.780;2023-04-03T11:38:03;10.20;95.80
10889;DHT22;5497;51.388;6.780;2023-04-03T11:40:32;10.20;96.60
10889;DHT22;5497;51.388;6.780;2023-04-03T11:43:06;10.40;97.70
10889;DHT22;5497;51.388;6.780;2023-04-03T11:45:36;10.50;97.30
10889;DHT22;5497;51.388;6.780;2023-04-03T11:48:04;10.60;96.50
10889;DHT22;5497;51.388;6.780;2023-04-03T11:53:30;10.80;96.00
10889;DHT22;5497;51.388;6.780;2023-04-03T11:55:58;10.70;95.70
10889;DHT22;5497;51.388;6.780;2023-04-03T11:58:27;10.60;94.70
10889;DHT22;5497;51.388;6.780;2023-04-03T12:00:55;10.40;95.20
10889;DHT22;5497;51.388;6.780;2023-04-03T12:08:58;10.60;94.70
10889;DHT22;5497;51.388;6.780;2023-04-03T12:11:25;10.60;95.70
10889;DHT22;5497;51.388;6.780;2023-04-03T12:14:03;10.70;95.10
10889;DHT22;5497;51.388;6.780;2023-04-03T12:16:30;10.80;95.00
10889;DHT22;5497;51.388;6.780;2023-04-03T12:19:00;10.80;94.40
10889;DHT22;5497;51.388;6.780;2023-04-03T12:27:03;10.80;93.50
10889;DHT22;5497;51.388;6.780;2023-04-03T12:29:34;10.90;93.50
10889;DHT22;5497;51.388;6.780;2023-04-03T12:32:08;11.00;94.30
10889;DHT22;5497;51.388;6.780;2023-04-03T12:34:44;11.10;94.30
10889;DHT22;5497;51.388;6.780;2023-04-03T12:37:19;11.20;93.40
10889;DHT22;5497;51.388;6.780;2023-04-03T12:39:50;11.20;93.70
10889;DHT22;5497;51.388;6.780;2023-04-03T12:42:35;11.40;93.20
10889;DHT22;5497;51.388;6.780;2023-04-03T12:45:09;11.20;91.80
10889;DHT22;5497;51.388;6.780;2023-04-03T12:47:36;11.10;91.80
10889;DHT22;5497;51.388;6.780;2023-04-03T12:50:16;11.00;91.60
10889;DHT22;5497;51.388;6.780;2023-04-03T12:52:44;10.90;91.00
10889;DHT22;5497;51.388;6.780;2023-04-03T12:55:15;10.90;91.80
10889;DHT22;5497;51.388;6.780;2023-04-03T12:57:42;10.90;91.80
10889;DHT22;5497;51.388;6.780;2023-04-03T13:00:28;11.00;92.40
10889;DHT22;5497;51.388;6.780;2023-04-03T13:02:56;10.90;92.40
10889;DHT22;5497;51.388;6.780;2023-04-03T13:05:23;11.00;93.30
10889;DHT22;5497;51.388;6.780;2023-04-03T13:07:51;11.20;93.50
10889;DHT22;5497;51.388;6.780;2023-04-03T13:10:19;11.30;93.60
10889;DHT22;5497;51.388;6.780;2023-04-03T13:12:47;11.50;92.50
10889;DHT22;5497;51.388;6.780;2023-04-03T13:15:16;11.40;91.80
10889;DHT22;5497;51.388;6.780;2023-04-03T13:17:44;11.40;91.40
10889;DHT22;5497;51.388;6.780;2023-04-03T13:20:17;11.30;91.50
10889;DHT22;5497;51.388;6.780;2023-04-03T13:22:46;11.30;91.10
10889;DHT22;5497;51.388;6.780;2023-04-03T13:25:14;11.20;90.90
10889;DHT22;5497;51.388;6.780;2023-04-03T13:27:42;11.00;91.50
10889;DHT22;5497;51.388;6.780;2023-04-03T13:30:17;11.10;91.30
10889;DHT22;5497;51.388;6.780;2023-04-03T13:32:48;11.20;92.10
10889;DHT22;5497;51.388;6.780;2023-04-03T13:35:28;11.10;90.90
10889;DHT22;5497;51.388;6.780;2023-04-03T13:37:56;11.00;91.20
10889;DHT22;5497;51.388;6.780;2023-04-03T13:40:23;11.10;91.20
10889;DHT22;5497;51.388;6.780;2023-04-03T13:42:58;11.10;90.90
10889;DHT22;5497;51.388;6.780;2023-04-03T13:45:26;11.20;91.70
10889;DHT22;5497;51.388;6.780;2023-04-03T13:48:07;11.20;90.90
10889;DHT22;5497;51.388;6.780;2023-04-03T13:50:48;11.10;90.90
10889;DHT22;5497;51.388;6.780;2023-04-03T13:53:16;11.10;90.80
10889;DHT22;5497;51.388;6.780;2023-04-03T13:55:53;11.00;91.50
10889;DHT22;5497;51.388;6.780;2023-04-03T13:58:22;11.20;91.60
10889;DHT22;5497;51.388;6.780;2023-04-03T14:00:50;11.20;90.40
10889;DHT22;5497;51.388;6.780;2023-04-03T14:03:20;11.30;91.10
10889;DHT22;5497;51.388;6.780;2023-04-03T14:05:47;11.20;91.20
10889;DHT22;5497;51.388;6.780;2023-04-03T14:08:14;11.20;91.40
10889;DHT22;5497;51.388;6.780;2023-04-03T14:10:41;11.30;91.70
10889;DHT22;5497;51.388;6.780;2023-04-03T14:13:09;11.40;91.80
10889;DHT22;5497;51.388;6.780;2023-04-03T14:15:36;11.50;92.00
10889;DHT22;5497;51.388;6.780;2023-04-03T14:18:10;11.60;91.60
10889;DHT22;5497;51.388;6.780;2023-04-03T14:20:48;11.50;90.30
10889;DHT22;5497;51.388;6.780;2023-04-03T14:23:15;11.40;91.10
10889;DHT22;5497;51.388;6.780;2023-04-03T14:25:42;11.30;90.50
10889;DHT22;5497;51.388;6.780;2023-04-03T14:28:14;11.10;90.60
10889;DHT22;5497;51.388;6.780;2023-04-03T14:30:41;11.00;91.20
10889;DHT22;5497;51.388;6.780;2023-04-03T14:33:09;11.00;91.80
10889;DHT22;5497;51.388;6.780;2023-04-03T14:35:38;11.20;91.60
10889;DHT22;5497;51.388;6.780;2023-04-03T14:38:09;11.10;90.70
10889;DHT22;5497;51.388;6.780;2023-04-03T14:40:39;11.00;90.10
10889;DHT22;5497;51.388;6.780;2023-04-03T14:43:08;10.90;91.20
10889;DHT22;5497;51.388;6.780;2023-04-03T14:45:36;10.90;90.50
10889;DHT22;5497;51.388;6.780;2023-04-03T14:48:03;10.80;90.70
10889;DHT22;5497;51.388;6.780;2023-04-03T14:50:30;10.80;91.40
10889;DHT22;5497;51.388;6.780;2023-04-03T14:52:58;10.90;91.50
10889;DHT22;5497;51.388;6.780;2023-04-03T14:55:27;10.90;91.60
10889;DHT22;5497;51.388;6.780;2023-04-03T14:57:54;11.50;91.40
10889;DHT22;5497;51.388;6.780;2023-04-03T15:00:23;10.90;91.40
10889;DHT22;5497;51.388;6.780;2023-04-03T15:02:53;11.00;91.50
10889;DHT22;5497;51.388;6.780;2023-04-03T15:05:20;11.00;90.70
10889;DHT22;5497;51.388;6.780;2023-04-03T15:07:48;10.80;90.80
10889;DHT22;5497;51.388;6.780;2023-04-03T15:10:17;10.70;90.90
10889;DHT22;5497;51.388;6.780;2023-04-03T15:12:45;10.70;91.20
10889;DHT22;5497;51.388;6.780;2023-04-03T15:15:13;10.60;90.60
10889;DHT22;5497;51.388;6.780;2023-04-03T15:17:40;10.50;91.10
10889;DHT22;5497;51.388;6.780;2023-04-03T15:20:10;10.50;91.50
10889;DHT22;5497;51.388;6.780;2023-04-03T15:22:38;10.60;91.10
10889;DHT22;5497;51.388;6.780;2023-04-03T15:25:04;10.50;91.00
10889;DHT22;5497;51.388;6.780;2023-04-03T15:27:32;10.50;91.00
10889;DHT22;5497;51.388;6.780;2023-04-03T15:30:00;10.40;91.30
10889;DHT22;5497;51.388;6.780;2023-04-03T15:32:27;10.40;91.80
10889;DHT22;5497;51.388;6.780;2023-04-03T15:34:54;10.40;92.60
10889;DHT22;5497;51.388;6.780;2023-04-03T15:37:20;10.20;90.90
10889;DHT22;5497;51.388;6.780;2023-04-03T15:39:47;10.30;90.80
10889;DHT22;5497;51.388;6.780;2023-04-03T15:42:14;10.20;91.40
10889;DHT22;5497;51.388;6.780;2023-04-03T15:44:44;10.30;91.70
10889;DHT22;5497;51.388;6.780;2023-04-03T15:47:12;10.30;92.00
10889;DHT22;5497;51.388;6.780;2023-04-03T15:49:39;10.30;91.30
10889;DHT22;5497;51.388;6.780;2023-04-03T15:52:06;10.20;91.40
10889;DHT22;5497;51.388;6.780;2023-04-03T15:54:32;10.10;91.80
10889;DHT22;5497;51.388;6.780;2023-04-03T15:56:59;10.00;91.30
10889;DHT22;5497;51.388;6.780;2023-04-03T15:59:26;10.00;91.90
10889;DHT22;5497;51.388;6.780;2023-04-03T16:01:54;10.00;92.00
10889;DHT22;5497;51.388;6.780;2023-04-03T16:04:22;10.00;92.10
10889;DHT22;5497;51.388;6.780;2023-04-03T16:06:49;9.90;92.80
10889;DHT22;5497;51.388;6.780;2023-04-03T16:09:16;9.90;92.40
10889;DHT22;5497;51.388;6.780;2023-04-03T16:11:43;9.90;92.20
10889;DHT22;5497;51.388;6.780;2023-04-03T16:14:10;9.80;92.40
10889;DHT22;5497;51.388;6.780;2023-04-03T16:16:39;9.80;92.60
10889;DHT22;5497;51.388;6.780;2023-04-03T16:19:06;9.90;93.30
10889;DHT22;5497;51.388;6.780;2023-04-03T16:21:34;9.90;93.00
10889;DHT22;5497;51.388;6.780;2023-04-03T16:24:02;9.90;92.60
10889;DHT22;5497;51.388;6.780;2023-04-03T16:26:29;9.90;93.50
10889;DHT22;5497;51.388;6.780;2023-04-03T16:28:59;10.00;93.10